PWSweather.com
Personal Weather Stations
Station Observations
IVENETOL9
Brugine, BrugineIT 35020

BrugineBrugineIT 35020

Lat: 45.2975, Lon: 11.9962777

Elevation: 19

Station Type: Davis Vantage Pro2 Plus

http://www.meteobrugine.it/

Latest ConditionsUpdated 8:45:55 PM GMT+01:01 Tuesday, Dec 6, 2016
Currently Today's Max Today's Min Today's Average
Temperature 38.6°F3.7°C 49.7°F9.8°C 33.6°F0.9°C 41.3°F5.2°C
Dew Point 37.3°F2.9°C 44.1°F6.7°C 32.4°F0.2°C 38.9°F3.8°C
Winds Calm Calm 1.1 mph NNE1.8 kmh NNE - 0.0 mph 0.0 kmh
Wind Gusts -- 4.0 mph6.4 kmh - -
Humidity 95% 95% 79% 91%
Pressure 30.44 in1030.8 mb 30.44 in1030.8 mb 30.36 in1028.1 mb -
Hour Temp Dew Point Humidity Winds Wind Gusts Pressure Precip Precip Rate Daily Precip Total
08:45 PM 38.6°F3.7°C 37.3°F2.9°C 95% Calm Calm -- 30.44 in1030.8 mb - 0.00 in0.0 mm 0.00 in0.0 mm
08:31 PM 38.8°F3.8°C 37.5°F3.1°C 95% Calm Calm -- 30.44 in1030.8 mb - 0.00 in0.0 mm 0.00 in0.0 mm
08:15 PM 38.8°F3.8°C 37.5°F3.1°C 95% Calm Calm 1.0 mph1.6 kmh 30.44 in1030.8 mb - 0.00 in0.0 mm 0.00 in0.0 mm
08:01 PM 39.2°F4.0°C 37.9°F3.3°C 95% Calm Calm -- 30.43 in1030.5 mb - 0.00 in0.0 mm 0.00 in0.0 mm
07:45 PM 39.5°F4.2°C 38.1°F3.4°C 95% Calm Calm -- 30.43 in1030.5 mb - 0.00 in0.0 mm 0.00 in0.0 mm
07:31 PM 39.7°F4.3°C 38.4°F3.6°C 95% Calm Calm 1.0 mph1.6 kmh 30.43 in1030.5 mb - 0.00 in0.0 mm 0.00 in0.0 mm
07:16 PM 39.8°F4.3°C 38.5°F3.6°C 95% Calm Calm -- 30.43 in1030.5 mb - 0.00 in0.0 mm 0.00 in0.0 mm
07:01 PM 40.0°F4.4°C 38.7°F3.7°C 95% Calm Calm 1.0 mph1.6 kmh 30.43 in1030.5 mb - 0.00 in0.0 mm 0.00 in0.0 mm
06:45 PM 40.0°F4.4°C 38.7°F3.7°C 95% Calm Calm -- 30.42 in1030.1 mb - 0.00 in0.0 mm 0.00 in0.0 mm
06:30 PM 39.8°F4.3°C 38.5°F3.6°C 95% Calm Calm -- 30.42 in1030.1 mb - 0.00 in0.0 mm 0.00 in0.0 mm
06:15 PM 39.6°F4.2°C 38.3°F3.5°C 95% Calm Calm -- 30.41 in1029.8 mb - 0.00 in0.0 mm 0.00 in0.0 mm
06:00 PM 39.6°F4.2°C 38.3°F3.5°C 95% 0.3 mph S0.5 kmh S 4.0 mph6.4 kmh 30.41 in1029.8 mb - 0.00 in0.0 mm 0.00 in0.0 mm
05:45 PM 39.9°F4.4°C 38.3°F3.5°C 94% 0.1 mph S0.2 kmh S 2.0 mph3.2 kmh 30.40 in1029.5 mb - 0.00 in0.0 mm 0.00 in0.0 mm
05:30 PM 40.3°F4.6°C 38.7°F3.7°C 94% Calm Calm -- 30.40 in1029.5 mb - 0.00 in0.0 mm 0.00 in0.0 mm
05:01 PM 43.4°F6.3°C 41.2°F5.1°C 92% Calm Calm -- 30.39 in1029.1 mb - 0.00 in0.0 mm 0.00 in0.0 mm
04:46 PM 43.4°F6.3°C 41.2°F5.1°C 92% Calm Calm -- 30.39 in1029.1 mb - 0.00 in0.0 mm 0.00 in0.0 mm
04:30 PM 43.6°F6.4°C 41.4°F5.2°C 92% Calm Calm -- 30.39 in1029.1 mb - 0.00 in0.0 mm 0.00 in0.0 mm
04:15 PM 44.9°F7.2°C 42.2°F5.7°C 90% Calm Calm -- 30.38 in1028.8 mb - 0.00 in0.0 mm 0.00 in0.0 mm
04:00 PM 46.1°F7.8°C 42.8°F6.0°C 88% Calm Calm -- 30.38 in1028.8 mb - 0.00 in0.0 mm 0.00 in0.0 mm
03:45 PM 47.1°F8.4°C 43.8°F6.6°C 88% Calm Calm -- 30.38 in1028.8 mb - 0.00 in0.0 mm 0.00 in0.0 mm
03:30 PM 48.1°F8.9°C 44.1°F6.7°C 86% Calm Calm -- 30.38 in1028.8 mb - 0.00 in0.0 mm 0.00 in0.0 mm
03:15 PM 48.7°F9.3°C 44.1°F6.7°C 84% Calm Calm -- 30.37 in1028.4 mb - 0.00 in0.0 mm 0.00 in0.0 mm
03:00 PM 49.2°F9.6°C 43.9°F6.6°C 82% Calm Calm -- 30.37 in1028.4 mb - 0.00 in0.0 mm 0.00 in0.0 mm
02:45 PM 49.2°F9.6°C 43.3°F6.3°C 80% Calm Calm -- 30.37 in1028.4 mb - 0.00 in0.0 mm 0.00 in0.0 mm
02:30 PM 49.7°F9.8°C 43.8°F6.6°C 80% Calm Calm -- 30.37 in1028.4 mb - 0.00 in0.0 mm 0.00 in0.0 mm
02:15 PM 49.6°F9.8°C 43.4°F6.3°C 79% Calm Calm -- 30.37 in1028.4 mb - 0.00 in0.0 mm 0.00 in0.0 mm
02:00 PM 49.6°F9.8°C 43.4°F6.3°C 79% Calm Calm -- 30.37 in1028.4 mb - 0.00 in0.0 mm 0.00 in0.0 mm
01:45 PM 49.1°F9.5°C 43.2°F6.2°C 80% Calm Calm -- 30.37 in1028.4 mb - 0.00 in0.0 mm 0.00 in0.0 mm
01:30 PM 49.1°F9.5°C 43.5°F6.4°C 81% Calm Calm -- 30.37 in1028.4 mb - 0.00 in0.0 mm 0.00 in0.0 mm
01:15 PM 48.8°F9.3°C 42.9°F6.1°C 80% Calm Calm -- 30.37 in1028.4 mb - 0.00 in0.0 mm 0.00 in0.0 mm
01:00 PM 48.7°F9.3°C 42.8°F6.0°C 80% Calm Calm -- 30.38 in1028.8 mb - 0.00 in0.0 mm 0.00 in0.0 mm
12:45 PM 48.5°F9.2°C 42.3°F5.7°C 79% Calm Calm -- 30.38 in1028.8 mb - 0.00 in0.0 mm 0.00 in0.0 mm
12:30 PM 48.1°F8.9°C 42.6°F5.9°C 81% Calm Calm -- 30.39 in1029.1 mb - 0.00 in0.0 mm 0.00 in0.0 mm
12:15 PM 47.3°F8.5°C 42.1°F5.6°C 82% Calm Calm -- 30.39 in1029.1 mb - 0.00 in0.0 mm 0.00 in0.0 mm
12:00 PM 46.6°F8.1°C 42.0°F5.6°C 84% Calm Calm -- 30.40 in1029.5 mb - 0.00 in0.0 mm 0.00 in0.0 mm
11:45 AM 46.0°F7.8°C 41.4°F5.2°C 84% 1.1 mph NNE1.8 kmh NNE 3.0 mph4.8 kmh 30.40 in1029.5 mb - 0.00 in0.0 mm 0.00 in0.0 mm
11:30 AM 45.4°F7.4°C 41.1°F5.1°C 85% 0.2 mph SW0.3 kmh SW 1.0 mph1.6 kmh 30.40 in1029.5 mb - 0.00 in0.0 mm 0.00 in0.0 mm
11:15 AM 44.5°F6.9°C 40.9°F4.9°C 87% Calm Calm -- 30.40 in1029.5 mb - 0.00 in0.0 mm 0.00 in0.0 mm
11:00 AM 43.6°F6.4°C 40.6°F4.8°C 89% Calm Calm -- 30.40 in1029.5 mb - 0.00 in0.0 mm 0.00 in0.0 mm
10:45 AM 42.6°F5.9°C 40.2°F4.6°C 91% Calm Calm -- 30.41 in1029.8 mb - 0.00 in0.0 mm 0.00 in0.0 mm
10:30 AM 41.9°F5.5°C 39.7°F4.3°C 92% Calm Calm -- 30.41 in1029.8 mb - 0.00 in0.0 mm 0.00 in0.0 mm
10:15 AM 40.7°F4.8°C 39.1°F3.9°C 94% Calm Calm -- 30.41 in1029.8 mb - 0.00 in0.0 mm 0.00 in0.0 mm
10:00 AM 39.6°F4.2°C 38.3°F3.5°C 95% Calm Calm -- 30.41 in1029.8 mb - 0.00 in0.0 mm 0.00 in0.0 mm
09:45 AM 38.5°F3.6°C 37.2°F2.9°C 95% Calm Calm -- 30.40 in1029.5 mb - 0.00 in0.0 mm 0.00 in0.0 mm
09:30 AM 37.5°F3.1°C 36.2°F2.3°C 95% Calm Calm -- 30.40 in1029.5 mb - 0.00 in0.0 mm 0.00 in0.0 mm
09:15 AM 36.8°F2.7°C 35.5°F1.9°C 95% Calm Calm -- 30.40 in1029.5 mb - 0.00 in0.0 mm 0.00 in0.0 mm
09:00 AM 35.0°F1.7°C 33.8°F1.0°C 95% Calm Calm -- 30.40 in1029.5 mb - 0.00 in0.0 mm 0.00 in0.0 mm
08:45 AM 34.5°F1.4°C 33.2°F0.7°C 95% Calm Calm -- 30.39 in1029.1 mb - 0.00 in0.0 mm 0.00 in0.0 mm
08:30 AM 34.1°F1.2°C 32.8°F0.4°C 95% Calm Calm -- 30.39 in1029.1 mb - 0.00 in0.0 mm 0.00 in0.0 mm
08:15 AM 33.7°F0.9°C 32.4°F0.2°C 95% Calm Calm -- 30.39 in1029.1 mb - 0.00 in0.0 mm 0.00 in0.0 mm
08:00 AM 33.6°F0.9°C 32.4°F0.2°C 95% Calm Calm -- 30.38 in1028.8 mb - 0.00 in0.0 mm 0.00 in0.0 mm
07:45 AM 33.9°F1.1°C 32.6°F0.3°C 95% Calm Calm -- 30.38 in1028.8 mb - 0.00 in0.0 mm 0.00 in0.0 mm
07:30 AM 34.2°F1.2°C 32.9°F0.5°C 95% Calm Calm -- 30.38 in1028.8 mb - 0.00 in0.0 mm 0.00 in0.0 mm
07:15 AM 34.6°F1.4°C 33.3°F0.7°C 95% Calm Calm -- 30.37 in1028.4 mb - 0.00 in0.0 mm 0.00 in0.0 mm
07:00 AM 35.1°F1.7°C 33.8°F1.0°C 95% Calm Calm -- 30.37 in1028.4 mb - 0.00 in0.0 mm 0.00 in0.0 mm
06:45 AM 35.5°F1.9°C 34.2°F1.2°C 95% Calm Calm -- 30.37 in1028.4 mb - 0.00 in0.0 mm 0.00 in0.0 mm
06:30 AM 35.7°F2.1°C 34.4°F1.3°C 95% Calm Calm -- 30.37 in1028.4 mb - 0.00 in0.0 mm 0.00 in0.0 mm
06:15 AM 35.8°F2.1°C 34.5°F1.4°C 95% Calm Calm -- 30.36 in1028.1 mb - 0.00 in0.0 mm 0.00 in0.0 mm
06:00 AM 35.7°F2.1°C 34.1°F1.2°C 94% Calm Calm -- 30.36 in1028.1 mb - 0.00 in0.0 mm 0.00 in0.0 mm
05:45 AM 35.9°F2.2°C 34.3°F1.3°C 94% Calm Calm -- 30.36 in1028.1 mb - 0.00 in0.0 mm 0.00 in0.0 mm
05:30 AM 36.1°F2.3°C 34.6°F1.4°C 94% Calm Calm -- 30.36 in1028.1 mb - 0.00 in0.0 mm 0.00 in0.0 mm
05:15 AM 36.5°F2.5°C 35.0°F1.7°C 94% Calm Calm -- 30.36 in1028.1 mb - 0.00 in0.0 mm 0.00 in0.0 mm
05:00 AM 37.0°F2.8°C 35.4°F1.9°C 94% Calm Calm -- 30.36 in1028.1 mb - 0.00 in0.0 mm 0.00 in0.0 mm
04:45 AM 37.5°F3.1°C 35.9°F2.2°C 94% Calm Calm -- 30.36 in1028.1 mb - 0.00 in0.0 mm 0.00 in0.0 mm
04:30 AM 37.8°F3.2°C 36.2°F2.3°C 94% Calm Calm -- 30.36 in1028.1 mb - 0.00 in0.0 mm 0.00 in0.0 mm
04:15 AM 38.2°F3.4°C 36.6°F2.6°C 94% Calm Calm -- 30.36 in1028.1 mb - 0.00 in0.0 mm 0.00 in0.0 mm
04:00 AM 38.7°F3.7°C 37.1°F2.8°C 94% Calm Calm -- 30.36 in1028.1 mb - 0.00 in0.0 mm 0.00 in0.0 mm
03:45 AM 39.2°F4.0°C 37.6°F3.1°C 94% Calm Calm -- 30.36 in1028.1 mb - 0.00 in0.0 mm 0.00 in0.0 mm
03:30 AM 39.6°F4.2°C 38.0°F3.3°C 94% Calm Calm -- 30.36 in1028.1 mb - 0.00 in0.0 mm 0.00 in0.0 mm
03:15 AM 40.0°F4.4°C 38.4°F3.6°C 94% Calm Calm -- 30.37 in1028.4 mb - 0.00 in0.0 mm 0.00 in0.0 mm
03:00 AM 40.4°F4.7°C 38.8°F3.8°C 94% Calm Calm -- 30.37 in1028.4 mb - 0.00 in0.0 mm 0.00 in0.0 mm
02:45 AM 40.9°F4.9°C 39.3°F4.1°C 94% Calm Calm -- 30.37 in1028.4 mb - 0.00 in0.0 mm 0.00 in0.0 mm
02:30 AM 41.3°F5.2°C 39.7°F4.3°C 94% Calm Calm -- 30.37 in1028.4 mb - 0.00 in0.0 mm 0.00 in0.0 mm
02:15 AM 42.1°F5.6°C 40.5°F4.7°C 94% Calm Calm -- 30.37 in1028.4 mb - 0.00 in0.0 mm 0.00 in0.0 mm
02:00 AM 42.6°F5.9°C 41.0°F5.0°C 94% Calm Calm -- 30.37 in1028.4 mb - 0.00 in0.0 mm 0.00 in0.0 mm
01:45 AM 42.9°F6.1°C 41.3°F5.2°C 94% Calm Calm -- 30.37 in1028.4 mb - 0.00 in0.0 mm 0.00 in0.0 mm
01:30 AM 43.2°F6.2°C 41.6°F5.3°C 94% Calm Calm -- 30.37 in1028.4 mb - 0.00 in0.0 mm 0.00 in0.0 mm
01:15 AM 43.3°F6.3°C 41.7°F5.4°C 94% Calm Calm -- 30.37 in1028.4 mb - 0.00 in0.0 mm 0.00 in0.0 mm
01:00 AM 43.4°F6.3°C 41.8°F5.4°C 94% Calm Calm -- 30.37 in1028.4 mb - 0.00 in0.0 mm 0.00 in0.0 mm
12:45 AM 43.4°F6.3°C 41.8°F5.4°C 94% Calm Calm -- 30.37 in1028.4 mb - 0.00 in0.0 mm 0.00 in0.0 mm
12:30 AM 43.5°F6.4°C 41.9°F5.5°C 94% Calm Calm -- 30.37 in1028.4 mb - 0.00 in0.0 mm 0.00 in0.0 mm
12:15 AM 43.5°F6.4°C 41.9°F5.5°C 94% Calm Calm -- 30.37 in1028.4 mb - 0.00 in0.0 mm 0.00 in0.0 mm
12:01 AM 43.6°F6.4°C 42.0°F5.6°C 94% Calm Calm -- 30.37 in1028.4 mb - 0.00 in0.0 mm 0.00 in0.0 mm